Terminal Aerodrome Forecast
Issued by NWS

Home | Current Version | Previous Version | Text Only | Print | Product List | Glossary Off
Versions: 1 2 3 4 5 6 7 8 9 10 11 12 13 14 15 16 17 18 19 20 21 22 23 24 25 26 27 28 29 30 31 32 33 34 35 36

000
FTUS43 KLOT 280900 AAA
TAFORD
TAF AMD
KORD 280900Z 2809/2912 00000KT 6SM BR SCT250
      TEMPO 2810/2812 4SM BR
     FM281300 VRB03KT P6SM SCT250
     FM281900 09007KT P6SM FEW250=

USA.gov is the U.S. government's official web portal to all federal, state and local government web resources and services.